sensor_id;sensor_type;location;lat;lon;timestamp;temperature;humidity
21551;DHT22;10936;49.836;7.078;2023-04-05T05:01:12;-3.40;99.90
21551;DHT22;10936;49.836;7.078;2023-04-05T05:03:38;-3.40;99.90
21551;DHT22;10936;49.836;7.078;2023-04-05T05:06:04;-3.40;99.90
21551;DHT22;10936;49.836;7.078;2023-04-05T05:08:30;-3.30;99.90
21551;DHT22;10936;49.836;7.078;2023-04-05T05:10:55;-3.20;99.90
21551;DHT22;10936;49.836;7.078;2023-04-05T05:13:21;-3.10;99.90
21551;DHT22;10936;49.836;7.078;2023-04-05T05:15:47;-3.10;99.90
21551;DHT22;10936;49.836;7.078;2023-04-05T05:18:13;-3.00;99.90
21551;DHT22;10936;49.836;7.078;2023-04-05T05:20:38;-2.90;99.90
21551;DHT22;10936;49.836;7.078;2023-04-05T05:23:05;-2.80;99.90
21551;DHT22;10936;49.836;7.078;2023-04-05T05:25:31;-2.70;99.90
21551;DHT22;10936;49.836;7.078;2023-04-05T05:27:56;-2.70;99.90
21551;DHT22;10936;49.836;7.078;2023-04-05T05:30:22;-2.50;99.90
21551;DHT22;10936;49.836;7.078;2023-04-05T05:32:48;-2.40;99.90
21551;DHT22;10936;49.836;7.078;2023-04-05T05:35:13;-2.20;99.90
21551;DHT22;10936;49.836;7.078;2023-04-05T05:37:39;-2.10;99.90
21551;DHT22;10936;49.836;7.078;2023-04-05T05:40:06;-2.00;99.90
21551;DHT22;10936;49.836;7.078;2023-04-05T05:42:31;-1.80;99.90
21551;DHT22;10936;49.836;7.078;2023-04-05T05:45:02;-1.40;99.90
21551;DHT22;10936;49.836;7.078;2023-04-05T05:47:27;-0.90;99.90
21551;DHT22;10936;49.836;7.078;2023-04-05T05:49:53;-0.40;99.90
21551;DHT22;10936;49.836;7.078;2023-04-05T05:52:18;0.50;99.90
21551;DHT22;10936;49.836;7.078;2023-04-05T05:54:44;2.40;99.90
21551;DHT22;10936;49.836;7.078;2023-04-05T05:57:11;4.90;99.90
21551;DHT22;10936;49.836;7.078;2023-04-05T05:59:37;7.10;99.90
21551;DHT22;10936;49.836;7.078;2023-04-05T06:02:02;9.20;99.90
21551;DHT22;10936;49.836;7.078;2023-04-05T06:04:28;11.00;99.90
21551;DHT22;10936;49.836;7.078;2023-04-05T06:06:54;12.40;99.90
21551;DHT22;10936;49.836;7.078;2023-04-05T06:09:19;13.50;99.90
21551;DHT22;10936;49.836;7.078;2023-04-05T06:11:50;14.20;99.90
21551;DHT22;10936;49.836;7.078;2023-04-05T06:14:16;15.00;99.90
21551;DHT22;10936;49.836;7.078;2023-04-05T06:16:42;15.60;99.90
21551;DHT22;10936;49.836;7.078;2023-04-05T06:19:07;15.80;99.90
21551;DHT22;10936;49.836;7.078;2023-04-05T06:21:33;16.80;99.90
21551;DHT22;10936;49.836;7.078;2023-04-05T06:23:58;17.00;99.70
21551;DHT22;10936;49.836;7.078;2023-04-05T06:26:24;17.50;99.40
21551;DHT22;10936;49.836;7.078;2023-04-05T06:28:53;17.70;98.80
21551;DHT22;10936;49.836;7.078;2023-04-05T06:31:20;18.00;96.40
21551;DHT22;10936;49.836;7.078;2023-04-05T06:33:50;18.50;95.20
21551;DHT22;10936;49.836;7.078;2023-04-05T06:36:15;18.80;94.00
21551;DHT22;10936;49.836;7.078;2023-04-05T06:38:41;18.60;94.30
21551;DHT22;10936;49.836;7.078;2023-04-05T06:41:07;19.20;93.50
21551;DHT22;10936;49.836;7.078;2023-04-05T06:43:32;20.10;92.40
21551;DHT22;10936;49.836;7.078;2023-04-05T06:45:58;20.30;91.40
21551;DHT22;10936;49.836;7.078;2023-04-05T06:48:24;19.70;91.20
21551;DHT22;10936;49.836;7.078;2023-04-05T06:50:57;19.60;90.60
21551;DHT22;10936;49.836;7.078;2023-04-05T06:53:22;20.20;89.90
21551;DHT22;10936;49.836;7.078;2023-04-05T06:55:49;20.90;87.40
21551;DHT22;10936;49.836;7.078;2023-04-05T06:58:15;22.60;83.40
21551;DHT22;10936;49.836;7.078;2023-04-05T07:00:41;24.20;77.30
21551;DHT22;10936;49.836;7.078;2023-04-05T07:03:06;23.80;75.10
21551;DHT22;10936;49.836;7.078;2023-04-05T07:05:32;23.00;74.70
21551;DHT22;10936;49.836;7.078;2023-04-05T07:07:57;22.80;74.10
21551;DHT22;10936;49.836;7.078;2023-04-05T07:10:23;22.70;72.50
21551;DHT22;10936;49.836;7.078;2023-04-05T07:12:49;23.10;71.00
21551;DHT22;10936;49.836;7.078;2023-04-05T07:15:15;23.20;70.40
21551;DHT22;10936;49.836;7.078;2023-04-05T07:17:40;23.80;67.70
21551;DHT22;10936;49.836;7.078;2023-04-05T07:20:06;24.40;65.90
21551;DHT22;10936;49.836;7.078;2023-04-05T07:22:33;24.80;64.70
21551;DHT22;10936;49.836;7.078;2023-04-05T07:24:59;25.50;62.50
21551;DHT22;10936;49.836;7.078;2023-04-05T07:27:25;25.30;61.80
21551;DHT22;10936;49.836;7.078;2023-04-05T07:29:51;25.60;59.60
21551;DHT22;10936;49.836;7.078;2023-04-05T07:32:17;24.90;60.70
21551;DHT22;10936;49.836;7.078;2023-04-05T07:34:42;25.70;61.10
21551;DHT22;10936;49.836;7.078;2023-04-05T07:37:08;24.90;59.00
21551;DHT22;10936;49.836;7.078;2023-04-05T07:39:33;24.90;58.90
21551;DHT22;10936;49.836;7.078;2023-04-05T07:41:59;25.60;59.30
21551;DHT22;10936;49.836;7.078;2023-04-05T07:44:24;26.20;58.70
21551;DHT22;10936;49.836;7.078;2023-04-05T07:46:50;27.30;56.60
21551;DHT22;10936;49.836;7.078;2023-04-05T07:49:16;27.70;55.60
21551;DHT22;10936;49.836;7.078;2023-04-05T07:51:41;27.50;55.00
21551;DHT22;10936;49.836;7.078;2023-04-05T07:54:07;27.70;54.60
21551;DHT22;10936;49.836;7.078;2023-04-05T07:56:34;28.30;53.70
21551;DHT22;10936;49.836;7.078;2023-04-05T07:59:00;27.90;53.10
21551;DHT22;10936;49.836;7.078;2023-04-05T08:01:26;27.40;52.90
21551;DHT22;10936;49.836;7.078;2023-04-05T08:03:52;27.90;51.20
21551;DHT22;10936;49.836;7.078;2023-04-05T08:06:18;28.50;52.30
21551;DHT22;10936;49.836;7.078;2023-04-05T08:08:45;29.10;52.40
21551;DHT22;10936;49.836;7.078;2023-04-05T08:11:11;28.90;52.70
21551;DHT22;10936;49.836;7.078;2023-04-05T08:13:37;30.20;49.50
21551;DHT22;10936;49.836;7.078;2023-04-05T08:16:06;30.00;50.10
21551;DHT22;10936;49.836;7.078;2023-04-05T08:18:32;30.20;51.20
21551;DHT22;10936;49.836;7.078;2023-04-05T08:20:58;28.50;50.00
21551;DHT22;10936;49.836;7.078;2023-04-05T08:23:23;28.60;50.50
21551;DHT22;10936;49.836;7.078;2023-04-05T08:25:49;29.80;48.50
21551;DHT22;10936;49.836;7.078;2023-04-05T08:28:15;29.00;48.30
21551;DHT22;10936;49.836;7.078;2023-04-05T08:30:41;27.80;47.60
21551;DHT22;10936;49.836;7.078;2023-04-05T08:33:07;28.40;48.50
21551;DHT22;10936;49.836;7.078;2023-04-05T08:35:35;29.10;48.50
21551;DHT22;10936;49.836;7.078;2023-04-05T08:38:01;29.70;47.80
21551;DHT22;10936;49.836;7.078;2023-04-05T08:40:36;30.40;47.00
21551;DHT22;10936;49.836;7.078;2023-04-05T08:43:13;29.40;46.80
21551;DHT22;10936;49.836;7.078;2023-04-05T08:45:49;29.10;46.50
21551;DHT22;10936;49.836;7.078;2023-04-05T08:48:15;28.10;47.80
21551;DHT22;10936;49.836;7.078;2023-04-05T08:50:41;27.30;48.10
21551;DHT22;10936;49.836;7.078;2023-04-05T08:53:07;28.10;47.10
21551;DHT22;10936;49.836;7.078;2023-04-05T08:55:36;28.90;47.80
21551;DHT22;10936;49.836;7.078;2023-04-05T08:58:08;30.60;47.30
21551;DHT22;10936;49.836;7.078;2023-04-05T09:00:37;32.80;45.30
21551;DHT22;10936;49.836;7.078;2023-04-05T09:03:03;34.30;45.00
21551;DHT22;10936;49.836;7.078;2023-04-05T09:05:30;32.20;43.10
21551;DHT22;10936;49.836;7.078;2023-04-05T09:07:57;30.50;45.60
21551;DHT22;10936;49.836;7.078;2023-04-05T09:10:23;29.20;45.90
21551;DHT22;10936;49.836;7.078;2023-04-05T09:12:50;28.80;45.90
21551;DHT22;10936;49.836;7.078;2023-04-05T09:15:16;27.90;49.30
21551;DHT22;10936;49.836;7.078;2023-04-05T09:17:42;28.50;46.50
21551;DHT22;10936;49.836;7.078;2023-04-05T09:20:08;25.50;47.30
21551;DHT22;10936;49.836;7.078;2023-04-05T09:22:44;26.80;48.20
21551;DHT22;10936;49.836;7.078;2023-04-05T09:25:10;25.70;46.10
21551;DHT22;10936;49.836;7.078;2023-04-05T09:27:55;24.40;49.30
21551;DHT22;10936;49.836;7.078;2023-04-05T09:30:21;24.20;49.60
21551;DHT22;10936;49.836;7.078;2023-04-05T09:32:47;25.10;49.50
21551;DHT22;10936;49.836;7.078;2023-04-05T09:35:18;26.50;47.70
21551;DHT22;10936;49.836;7.078;2023-04-05T09:37:52;26.90;46.70
21551;DHT22;10936;49.836;7.078;2023-04-05T09:40:18;26.90;47.60
21551;DHT22;10936;49.836;7.078;2023-04-05T09:42:44;29.60;46.60
21551;DHT22;10936;49.836;7.078;2023-04-05T09:45:11;30.20;44.90
21551;DHT22;10936;49.836;7.078;2023-04-05T09:47:37;32.70;44.60
21551;DHT22;10936;49.836;7.078;2023-04-05T09:52:41;34.00;43.90
21551;DHT22;10936;49.836;7.078;2023-04-05T09:55:07;32.70;44.10
21551;DHT22;10936;49.836;7.078;2023-04-05T09:57:36;33.50;43.50
21551;DHT22;10936;49.836;7.078;2023-04-05T10:00:04;33.80;44.40
21551;DHT22;10936;49.836;7.078;2023-04-05T10:02:39;33.40;44.80
21551;DHT22;10936;49.836;7.078;2023-04-05T10:05:10;32.20;44.10
21551;DHT22;10936;49.836;7.078;2023-04-05T10:07:38;31.90;44.20
21551;DHT22;10936;49.836;7.078;2023-04-05T10:10:05;32.80;44.20
21551;DHT22;10936;49.836;7.078;2023-04-05T10:12:31;29.80;47.00
21551;DHT22;10936;49.836;7.078;2023-04-05T10:14:57;30.10;46.20
21551;DHT22;10936;49.836;7.078;2023-04-05T10:17:29;31.70;45.20
21551;DHT22;10936;49.836;7.078;2023-04-05T10:22:52;31.20;43.60
21551;DHT22;10936;49.836;7.078;2023-04-05T10:28:04;29.10;45.90
21551;DHT22;10936;49.836;7.078;2023-04-05T10:30:40;28.90;48.00
21551;DHT22;10936;49.836;7.078;2023-04-05T10:33:29;29.00;47.30
21551;DHT22;10936;49.836;7.078;2023-04-05T10:36:21;30.40;46.00
21551;DHT22;10936;49.836;7.078;2023-04-05T10:39:04;31.70;44.60
21551;DHT22;10936;49.836;7.078;2023-04-05T10:41:36;31.90;42.70
21551;DHT22;10936;49.836;7.078;2023-04-05T10:44:04;26.30;46.40
21551;DHT22;10936;49.836;7.078;2023-04-05T10:46:34;22.10;52.20
21551;DHT22;10936;49.836;7.078;2023-04-05T10:49:20;19.40;55.70
21551;DHT22;10936;49.836;7.078;2023-04-05T10:51:47;18.80;58.20
21551;DHT22;10936;49.836;7.078;2023-04-05T10:54:13;20.60;56.20
21551;DHT22;10936;49.836;7.078;2023-04-05T10:56:43;24.20;53.10
21551;DHT22;10936;49.836;7.078;2023-04-05T10:59:11;27.00;48.50
21551;DHT22;10936;49.836;7.078;2023-04-05T11:01:38;27.30;47.30
21551;DHT22;10936;49.836;7.078;2023-04-05T11:04:14;27.80;46.30
21551;DHT22;10936;49.836;7.078;2023-04-05T11:06:41;28.80;47.00
21551;DHT22;10936;49.836;7.078;2023-04-05T11:09:17;29.80;46.70
21551;DHT22;10936;49.836;7.078;2023-04-05T11:11:51;28.20;46.30
21551;DHT22;10936;49.836;7.078;2023-04-05T11:14:23;27.80;48.70
21551;DHT22;10936;49.836;7.078;2023-04-05T11:16:53;26.30;49.00
21551;DHT22;10936;49.836;7.078;2023-04-05T11:19:47;23.60;50.50
21551;DHT22;10936;49.836;7.078;2023-04-05T11:22:25;24.70;51.90
21551;DHT22;10936;49.836;7.078;2023-04-05T11:27:39;25.00;49.80
21551;DHT22;10936;49.836;7.078;2023-04-05T11:30:47;22.00;51.60
21551;DHT22;10936;49.836;7.078;2023-04-05T11:36:01;22.00;54.10
21551;DHT22;10936;49.836;7.078;2023-04-05T11:38:27;23.50;52.00
21551;DHT22;10936;49.836;7.078;2023-04-05T11:41:16;24.70;51.80
21551;DHT22;10936;49.836;7.078;2023-04-05T11:43:45;23.00;53.30
21551;DHT22;10936;49.836;7.078;2023-04-05T11:46:15;21.70;56.10
21551;DHT22;10936;49.836;7.078;2023-04-05T11:48:41;23.50;53.00
21551;DHT22;10936;49.836;7.078;2023-04-05T11:51:09;22.80;54.90
21551;DHT22;10936;49.836;7.078;2023-04-05T11:53:36;24.10;51.20
21551;DHT22;10936;49.836;7.078;2023-04-05T11:56:10;25.30;50.70
21551;DHT22;10936;49.836;7.078;2023-04-05T11:58:37;26.80;49.80
21551;DHT22;10936;49.836;7.078;2023-04-05T12:01:05;28.80;48.60
21551;DHT22;10936;49.836;7.078;2023-04-05T12:03:35;28.50;46.80
21551;DHT22;10936;49.836;7.078;2023-04-05T12:06:02;27.80;47.50
21551;DHT22;10936;49.836;7.078;2023-04-05T12:08:43;26.30;47.50
21551;DHT22;10936;49.836;7.078;2023-04-05T12:11:15;24.10;51.90
21551;DHT22;10936;49.836;7.078;2023-04-05T12:13:44;21.60;52.80
21551;DHT22;10936;49.836;7.078;2023-04-05T12:16:10;19.50;56.60
21551;DHT22;10936;49.836;7.078;2023-04-05T12:18:36;17.80;58.20
21551;DHT22;10936;49.836;7.078;2023-04-05T12:21:07;16.50;62.00
21551;DHT22;10936;49.836;7.078;2023-04-05T12:23:34;15.70;63.50
21551;DHT22;10936;49.836;7.078;2023-04-05T12:26:00;14.60;65.10
21551;DHT22;10936;49.836;7.078;2023-04-05T12:28:49;14.00;65.20
21551;DHT22;10936;49.836;7.078;2023-04-05T12:31:16;13.50;66.80
21551;DHT22;10936;49.836;7.078;2023-04-05T12:33:42;13.50;66.50
21551;DHT22;10936;49.836;7.078;2023-04-05T12:36:08;12.90;70.60
21551;DHT22;10936;49.836;7.078;2023-04-05T12:38:36;12.30;70.60
21551;DHT22;10936;49.836;7.078;2023-04-05T12:41:02;11.30;73.30
21551;DHT22;10936;49.836;7.078;2023-04-05T12:43:41;10.70;74.70
21551;DHT22;10936;49.836;7.078;2023-04-05T12:46:11;11.10;74.80
21551;DHT22;10936;49.836;7.078;2023-04-05T12:48:41;11.10;75.00
21551;DHT22;10936;49.836;7.078;2023-04-05T12:51:14;10.70;74.10
21551;DHT22;10936;49.836;7.078;2023-04-05T12:53:44;10.60;75.70
21551;DHT22;10936;49.836;7.078;2023-04-05T12:56:11;10.50;77.70
21551;DHT22;10936;49.836;7.078;2023-04-05T12:58:37;10.70;75.20
21551;DHT22;10936;49.836;7.078;2023-04-05T13:01:04;10.30;73.30
21551;DHT22;10936;49.836;7.078;2023-04-05T13:03:30;10.10;74.30
21551;DHT22;10936;49.836;7.078;2023-04-05T13:05:56;10.30;79.00
21551;DHT22;10936;49.836;7.078;2023-04-05T13:08:23;11.00;77.00
21551;DHT22;10936;49.836;7.078;2023-04-05T13:10:51;11.40;77.30
21551;DHT22;10936;49.836;7.078;2023-04-05T13:13:17;12.10;77.60
21551;DHT22;10936;49.836;7.078;2023-04-05T13:15:44;12.50;75.50
21551;DHT22;10936;49.836;7.078;2023-04-05T13:18:10;12.00;72.60
21551;DHT22;10936;49.836;7.078;2023-04-05T13:20:41;11.30;72.20
21551;DHT22;10936;49.836;7.078;2023-04-05T13:23:07;10.90;74.20
21551;DHT22;10936;49.836;7.078;2023-04-05T13:25:36;10.60;75.50
21551;DHT22;10936;49.836;7.078;2023-04-05T13:28:02;10.50;76.30
21551;DHT22;10936;49.836;7.078;2023-04-05T13:30:27;10.80;76.60
21551;DHT22;10936;49.836;7.078;2023-04-05T13:32:54;11.10;76.70
21551;DHT22;10936;49.836;7.078;2023-04-05T13:35:20;11.10;77.80
21551;DHT22;10936;49.836;7.078;2023-04-05T13:37:46;10.90;76.50
21551;DHT22;10936;49.836;7.078;2023-04-05T13:40:11;11.20;74.70
21551;DHT22;10936;49.836;7.078;2023-04-05T13:42:37;11.40;74.70
21551;DHT22;10936;49.836;7.078;2023-04-05T13:45:04;11.30;71.90
21551;DHT22;10936;49.836;7.078;2023-04-05T13:47:29;11.30;72.90
21551;DHT22;10936;49.836;7.078;2023-04-05T13:49:55;10.90;70.70
21551;DHT22;10936;49.836;7.078;2023-04-05T13:52:20;11.00;73.60
21551;DHT22;10936;49.836;7.078;2023-04-05T13:54:46;11.10;73.00
21551;DHT22;10936;49.836;7.078;2023-04-05T13:57:11;11.20;71.40
21551;DHT22;10936;49.836;7.078;2023-04-05T13:59:39;11.10;70.80
21551;DHT22;10936;49.836;7.078;2023-04-05T14:02:04;11.20;72.60
21551;DHT22;10936;49.836;7.078;2023-04-05T14:04:30;11.50;72.90
21551;DHT22;10936;49.836;7.078;2023-04-05T14:06:56;11.50;69.00
21551;DHT22;10936;49.836;7.078;2023-04-05T14:09:22;11.50;68.70
21551;DHT22;10936;49.836;7.078;2023-04-05T14:11:47;11.50;67.70
21551;DHT22;10936;49.836;7.078;2023-04-05T14:14:13;11.30;68.80
21551;DHT22;10936;49.836;7.078;2023-04-05T14:16:38;11.30;71.00
21551;DHT22;10936;49.836;7.078;2023-04-05T14:19:04;11.40;68.70
21551;DHT22;10936;49.836;7.078;2023-04-05T14:21:30;11.40;66.90
21551;DHT22;10936;49.836;7.078;2023-04-05T14:23:56;11.40;69.40
21551;DHT22;10936;49.836;7.078;2023-04-05T14:26:26;11.30;66.70
21551;DHT22;10936;49.836;7.078;2023-04-05T14:28:52;11.20;65.30
21551;DHT22;10936;49.836;7.078;2023-04-05T14:31:18;11.10;67.70
21551;DHT22;10936;49.836;7.078;2023-04-05T14:33:44;11.20;70.10
21551;DHT22;10936;49.836;7.078;2023-04-05T14:36:10;10.90;72.40
21551;DHT22;10936;49.836;7.078;2023-04-05T14:38:35;10.80;73.70
21551;DHT22;10936;49.836;7.078;2023-04-05T14:41:01;10.80;73.50
21551;DHT22;10936;49.836;7.078;2023-04-05T14:43:28;10.70;74.10
21551;DHT22;10936;49.836;7.078;2023-04-05T14:45:54;10.80;73.90
21551;DHT22;10936;49.836;7.078;2023-04-05T14:48:19;10.80;74.80
21551;DHT22;10936;49.836;7.078;2023-04-05T14:50:45;10.90;73.70
21551;DHT22;10936;49.836;7.078;2023-04-05T14:53:11;11.00;72.00
21551;DHT22;10936;49.836;7.078;2023-04-05T14:55:36;11.10;73.60
21551;DHT22;10936;49.836;7.078;2023-04-05T14:58:02;11.00;72.20
21551;DHT22;10936;49.836;7.078;2023-04-05T15:00:27;11.00;73.20
21551;DHT22;10936;49.836;7.078;2023-04-05T15:02:53;11.10;73.30
21551;DHT22;10936;49.836;7.078;2023-04-05T15:05:19;11.00;73.20
21551;DHT22;10936;49.836;7.078;2023-04-05T15:07:45;10.90;71.90
21551;DHT22;10936;49.836;7.078;2023-04-05T15:10:10;10.70;74.50
21551;DHT22;10936;49.836;7.078;2023-04-05T15:12:36;10.80;75.00
21551;DHT22;10936;49.836;7.078;2023-04-05T15:15:02;10.80;75.10
21551;DHT22;10936;49.836;7.078;2023-04-05T15:17:27;10.90;75.40
21551;DHT22;10936;49.836;7.078;2023-04-05T15:19:53;10.90;73.50
21551;DHT22;10936;49.836;7.078;2023-04-05T15:22:18;10.80;71.30
21551;DHT22;10936;49.836;7.078;2023-04-05T15:24:47;10.80;72.50
21551;DHT22;10936;49.836;7.078;2023-04-05T15:27:13;10.60;72.60
21551;DHT22;10936;49.836;7.078;2023-04-05T15:29:39;10.50;73.10
21551;DHT22;10936;49.836;7.078;2023-04-05T15:32:04;10.10;73.10
21551;DHT22;10936;49.836;7.078;2023-04-05T15:34:30;9.70;72.70
21551;DHT22;10936;49.836;7.078;2023-04-05T15:36:56;9.80;74.40
21551;DHT22;10936;49.836;7.078;2023-04-05T15:39:22;9.70;70.50
21551;DHT22;10936;49.836;7.078;2023-04-05T15:41:48;9.50;71.20
21551;DHT22;10936;49.836;7.078;2023-04-05T15:44:14;9.60;72.40
21551;DHT22;10936;49.836;7.078;2023-04-05T15:46:40;9.80;74.90
21551;DHT22;10936;49.836;7.078;2023-04-05T15:49:06;9.90;74.30
21551;DHT22;10936;49.836;7.078;2023-04-05T15:51:32;9.80;73.50
21551;DHT22;10936;49.836;7.078;2023-04-05T15:53:59;9.70;75.20
21551;DHT22;10936;49.836;7.078;2023-04-05T15:56:24;9.80;77.00
21551;DHT22;10936;49.836;7.078;2023-04-05T15:58:51;9.90;76.90
21551;DHT22;10936;49.836;7.078;2023-04-05T16:01:17;9.90;75.80
21551;DHT22;10936;49.836;7.078;2023-04-05T16:03:42;10.00;76.80
21551;DHT22;10936;49.836;7.078;2023-04-05T16:06:08;10.00;76.60
21551;DHT22;10936;49.836;7.078;2023-04-05T16:08:34;9.90;77.40
21551;DHT22;10936;49.836;7.078;2023-04-05T16:10:59;9.90;77.80
21551;DHT22;10936;49.836;7.078;2023-04-05T16:13:25;9.90;76.30
21551;DHT22;10936;49.836;7.078;2023-04-05T16:15:51;9.90;74.70
21551;DHT22;10936;49.836;7.078;2023-04-05T16:18:17;9.70;74.60
21551;DHT22;10936;49.836;7.078;2023-04-05T16:20:45;9.70;76.70
21551;DHT22;10936;49.836;7.078;2023-04-05T16:23:12;9.60;77.40
21551;DHT22;10936;49.836;7.078;2023-04-05T16:25:38;9.50;75.80
21551;DHT22;10936;49.836;7.078;2023-04-05T16:28:04;9.40;76.80
21551;DHT22;10936;49.836;7.078;2023-04-05T16:30:32;9.20;81.80
21551;DHT22;10936;49.836;7.078;2023-04-05T16:32:58;9.10;80.20
21551;DHT22;10936;49.836;7.078;2023-04-05T16:35:23;8.90;79.10
21551;DHT22;10936;49.836;7.078;2023-04-05T16:37:49;9.00;79.30
21551;DHT22;10936;49.836;7.078;2023-04-05T16:40:15;9.00;80.20
21551;DHT22;10936;49.836;7.078;2023-04-05T16:42:42;9.00;80.80
21551;DHT22;10936;49.836;7.078;2023-04-05T16:45:08;9.00;79.40
21551;DHT22;10936;49.836;7.078;2023-04-05T16:47:34;8.80;80.50
21551;DHT22;10936;49.836;7.078;2023-04-05T16:50:00;8.70;80.00
21551;DHT22;10936;49.836;7.078;2023-04-05T16:52:26;8.60;80.80
21551;DHT22;10936;49.836;7.078;2023-04-05T16:54:51;8.30;81.40
21551;DHT22;10936;49.836;7.078;2023-04-05T16:57:17;8.10;83.30
21551;DHT22;10936;49.836;7.078;2023-04-05T16:59:42;8.10;84.00
21551;DHT22;10936;49.836;7.078;2023-04-05T17:02:08;8.00;82.70
21551;DHT22;10936;49.836;7.078;2023-04-05T17:04:34;8.00;86.50
21551;DHT22;10936;49.836;7.078;2023-04-05T17:07:01;8.00;89.30
21551;DHT22;10936;49.836;7.078;2023-04-05T17:09:26;7.90;92.40
21551;DHT22;10936;49.836;7.078;2023-04-05T17:11:54;7.90;91.80
21551;DHT22;10936;49.836;7.078;2023-04-05T17:14:20;7.80;90.90
21551;DHT22;10936;49.836;7.078;2023-04-05T17:16:45;7.80;91.70
21551;DHT22;10936;49.836;7.078;2023-04-05T17:19:15;7.70;93.10
21551;DHT22;10936;49.836;7.078;2023-04-05T17:21:41;7.80;93.80
21551;DHT22;10936;49.836;7.078;2023-04-05T17:24:09;7.80;94.90
21551;DHT22;10936;49.836;7.078;2023-04-05T17:26:35;7.90;95.30
21551;DHT22;10936;49.836;7.078;2023-04-05T17:29:01;8.00;96.30
21551;DHT22;10936;49.836;7.078;2023-04-05T17:31:27;8.00;96.60
21551;DHT22;10936;49.836;7.078;2023-04-05T17:33:52;8.00;96.40
21551;DHT22;10936;49.836;7.078;2023-04-05T17:36:18;8.00;97.10
21551;DHT22;10936;49.836;7.078;2023-04-05T17:38:44;8.00;98.10
21551;DHT22;10936;49.836;7.078;2023-04-05T17:41:10;8.00;99.30
21551;DHT22;10936;49.836;7.078;2023-04-05T17:43:36;7.90;99.90
21551;DHT22;10936;49.836;7.078;2023-04-05T17:46:02;7.80;99.90
21551;DHT22;10936;49.836;7.078;2023-04-05T17:48:29;7.70;99.90
21551;DHT22;10936;49.836;7.078;2023-04-05T17:50:57;7.60;99.90
21551;DHT22;10936;49.836;7.078;2023-04-05T17:53:23;7.50;99.90
21551;DHT22;10936;49.836;7.078;2023-04-05T17:55:48;7.40;99.90
21551;DHT22;10936;49.836;7.078;2023-04-05T17:58:14;7.30;99.90
21551;DHT22;10936;49.836;7.078;2023-04-05T18:00:39;7.30;99.90
21551;DHT22;10936;49.836;7.078;2023-04-05T18:03:05;7.30;99.90
21551;DHT22;10936;49.836;7.078;2023-04-05T18:05:31;7.20;99.90
21551;DHT22;10936;49.836;7.078;2023-04-05T18:07:57;7.10;99.90
21551;DHT22;10936;49.836;7.078;2023-04-05T18:10:22;7.00;99.90
21551;DHT22;10936;49.836;7.078;2023-04-05T18:12:48;6.90;99.90
21551;DHT22;10936;49.836;7.078;2023-04-05T18:15:14;6.90;99.90
21551;DHT22;10936;49.836;7.078;2023-04-05T18:17:41;6.80;99.90
21551;DHT22;10936;49.836;7.078;2023-04-05T18:20:09;6.60;99.90
21551;DHT22;10936;49.836;7.078;2023-04-05T18:22:35;6.60;99.90
21551;DHT22;10936;49.836;7.078;2023-04-05T18:25:01;6.50;99.90
21551;DHT22;10936;49.836;7.078;2023-04-05T18:27:27;6.40;99.90
21551;DHT22;10936;49.836;7.078;2023-04-05T18:29:53;6.40;99.90
21551;DHT22;10936;49.836;7.078;2023-04-05T18:32:18;6.20;99.90
21551;DHT22;10936;49.836;7.078;2023-04-05T18:34:44;6.20;99.90
21551;DHT22;10936;49.836;7.078;2023-04-05T18:37:10;6.10;99.90
21551;DHT22;10936;49.836;7.078;2023-04-05T18:39:35;6.10;99.90
21551;DHT22;10936;49.836;7.078;2023-04-05T18:42:01;6.10;99.90
21551;DHT22;10936;49.836;7.078;2023-04-05T18:44:27;6.10;99.90
21551;DHT22;10936;49.836;7.078;2023-04-05T18:46:53;6.00;99.90
21551;DHT22;10936;49.836;7.078;2023-04-05T18:49:19;5.90;99.90
21551;DHT22;10936;49.836;7.078;2023-04-05T18:51:45;5.90;99.90
21551;DHT22;10936;49.836;7.078;2023-04-05T18:54:13;5.80;99.90
21551;DHT22;10936;49.836;7.078;2023-04-05T18:56:38;5.70;99.90
21551;DHT22;10936;49.836;7.078;2023-04-05T18:59:04;5.60;99.90
21551;DHT22;10936;49.836;7.078;2023-04-05T19:01:30;5.50;99.90
21551;DHT22;10936;49.836;7.078;2023-04-05T19:03:55;5.50;99.90
21551;DHT22;10936;49.836;7.078;2023-04-05T19:06:21;5.40;99.90
21551;DHT22;10936;49.836;7.078;2023-04-05T19:08:47;5.20;99.90
21551;DHT22;10936;49.836;7.078;2023-04-05T19:11:12;5.10;99.90
21551;DHT22;10936;49.836;7.078;2023-04-05T19:13:40;5.00;99.90
21551;DHT22;10936;49.836;7.078;2023-04-05T19:16:05;5.00;99.90
21551;DHT22;10936;49.836;7.078;2023-04-05T19:18:31;4.80;99.90
21551;DHT22;10936;49.836;7.078;2023-04-05T19:20:58;4.70;99.90
21551;DHT22;10936;49.836;7.078;2023-04-05T19:23:24;4.50;99.90
21551;DHT22;10936;49.836;7.078;2023-04-05T19:25:54;4.50;99.90
21551;DHT22;10936;49.836;7.078;2023-04-05T19:28:20;4.40;99.90
21551;DHT22;10936;49.836;7.078;2023-04-05T19:30:46;4.30;99.90
21551;DHT22;10936;49.836;7.078;2023-04-05T19:33:12;4.20;99.90
21551;DHT22;10936;49.836;7.078;2023-04-05T19:35:38;4.10;99.90
21551;DHT22;10936;49.836;7.078;2023-04-05T19:38:04;4.00;99.90
21551;DHT22;10936;49.836;7.078;2023-04-05T19:40:30;3.90;99.90
21551;DHT22;10936;49.836;7.078;2023-04-05T19:42:59;3.80;99.90
21551;DHT22;10936;49.836;7.078;2023-04-05T19:45:28;3.70;99.90
21551;DHT22;10936;49.836;7.078;2023-04-05T19:47:55;3.70;99.90
21551;DHT22;10936;49.836;7.078;2023-04-05T19:52:57;3.50;99.90
21551;DHT22;10936;49.836;7.078;2023-04-05T19:55:37;3.40;99.90
21551;DHT22;10936;49.836;7.078;2023-04-05T19:58:07;3.30;99.90
21551;DHT22;10936;49.836;7.078;2023-04-05T20:08:14;3.30;99.90
21551;DHT22;10936;49.836;7.078;2023-04-05T20:10:41;3.20;99.90
21551;DHT22;10936;49.836;7.078;2023-04-05T20:13:13;3.20;99.90
21551;DHT22;10936;49.836;7.078;2023-04-05T20:15:40;3.10;99.90
21551;DHT22;10936;49.836;7.078;2023-04-05T20:18:10;2.90;99.90
21551;DHT22;10936;49.836;7.078;2023-04-05T20:20:42;2.90;99.90
21551;DHT22;10936;49.836;7.078;2023-04-05T20:23:08;2.80;99.90
21551;DHT22;10936;49.836;7.078;2023-04-05T20:25:42;2.80;99.90
21551;DHT22;10936;49.836;7.078;2023-04-05T20:28:37;2.70;99.90
21551;DHT22;10936;49.836;7.078;2023-04-05T20:31:07;2.60;99.90
21551;DHT22;10936;49.836;7.078;2023-04-05T20:36:12;2.40;99.90
21551;DHT22;10936;49.836;7.078;2023-04-05T20:38:42;2.40;99.90
21551;DHT22;10936;49.836;7.078;2023-04-05T20:41:10;2.20;99.90
21551;DHT22;10936;49.836;7.078;2023-04-05T20:43:37;2.10;99.90
21551;DHT22;10936;49.836;7.078;2023-04-05T20:46:05;2.00;99.90
21551;DHT22;10936;49.836;7.078;2023-04-05T20:48:32;1.90;99.90
21551;DHT22;10936;49.836;7.078;2023-04-05T20:50:59;1.90;99.90
21551;DHT22;10936;49.836;7.078;2023-04-05T20:53:26;1.80;99.90
21551;DHT22;10936;49.836;7.078;2023-04-05T20:55:52;1.70;99.90
21551;DHT22;10936;49.836;7.078;2023-04-05T20:58:18;1.70;99.90
21551;DHT22;10936;49.836;7.078;2023-04-05T21:00:43;1.70;99.90
21551;DHT22;10936;49.836;7.078;2023-04-05T21:03:10;1.60;99.90